Time;durP1;ratioP1;P1;durP2;ratioP2;P2;SDS_P1;SDS_P2;PMS_P1;PMS_P2;Temp;Humidity;BMP_temperature;BMP_pressure;BME280_temperature;BME280_humidity;BME280_pressure;Samples;Min_cycle;Max_cycle;Signal;HPM_P1;HPM_P2
2022/01/20 00:04:11;;;;;;;31.75;16.02;;;;;;;;;;5045485;28;20036;-58
2022/01/20 00:09:42;;;;;;;32.55;17.63;;;;;;;;;;5032325;28;20076;-58
2022/01/20 00:26:12;;;;;;;29.38;16.63;;;;;;;;;;5026343;28;20089;-58
2022/01/20 00:28:39;;;;;;;32.05;17.13;;;;;;;;;;5023047;28;20109;-58
2022/01/20 00:33:56;;;;;;;31.38;16.85;;;;;;;;;;5027553;28;20035;-58
2022/01/20 00:39:07;;;;;;;29.35;16.35;;;;;;;;;;5045867;28;20047;-58
2022/01/20 00:41:33;;;;;;;31.70;16.88;;;;;;;;;;5043669;28;20029;-58
2022/01/20 00:43:59;;;;;;;32.60;16.77;;;;;;;;;;5040227;28;20064;-58
2022/01/20 00:46:25;;;;;;;33.25;17.90;;;;;;;;;;5023683;28;20540;-58
2022/01/20 00:48:51;;;;;;;31.05;16.42;;;;;;;;;;5023320;28;20033;-58
2022/01/20 00:51:17;;;;;;;31.27;16.17;;;;;;;;;;5025044;28;20030;-58
2022/01/20 00:53:45;;;;;;;27.50;15.20;;;;;;;;;;5031041;28;20044;-58
2022/01/20 00:56:14;;;;;;;27.83;15.13;;;;;;;;;;5044959;28;20017;-58
2022/01/20 00:58:40;;;;;;;37.70;19.05;;;;;;;;;;5042984;28;20035;-58
2022/01/20 01:01:06;;;;;;;42.78;21.27;;;;;;;;;;5031753;28;20033;-58
2022/01/20 01:03:35;;;;;;;43.10;22.25;;;;;;;;;;5026782;28;20191;-58
2022/01/20 01:08:30;;;;;;;37.80;20.15;;;;;;;;;;5044258;28;20040;-58
2022/01/20 01:10:56;;;;;;;34.78;19.00;;;;;;;;;;5043366;28;20060;-58
2022/01/20 01:13:24;;;;;;;33.30;17.60;;;;;;;;;;5044127;28;20033;-58
2022/01/20 01:15:51;;;;;;;32.40;18.10;;;;;;;;;;5044321;28;20025;-58
2022/01/20 01:23:36;;;;;;;34.40;16.63;;;;;;;;;;5023899;28;20041;-58
2022/01/20 01:26:04;;;;;;;31.85;16.38;;;;;;;;;;5024494;28;20021;-58
2022/01/20 01:28:31;;;;;;;27.23;14.50;;;;;;;;;;5024438;28;20037;-58
2022/01/20 01:33:54;;;;;;;28.52;15.45;;;;;;;;;;5044052;28;20035;-58
2022/01/20 01:36:22;;;;;;;26.55;14.55;;;;;;;;;;5033306;28;20025;-58
2022/01/20 01:38:49;;;;;;;28.83;15.98;;;;;;;;;;5024035;28;20025;-58
2022/01/20 01:41:18;;;;;;;28.55;16.23;;;;;;;;;;5034545;28;20083;-58
2022/01/20 01:43:48;;;;;;;29.08;15.82;;;;;;;;;;5042632;28;20309;-58
2022/01/20 01:46:15;;;;;;;30.15;16.58;;;;;;;;;;5043190;28;20059;-58
2022/01/20 01:48:43;;;;;;;27.85;15.27;;;;;;;;;;5043921;28;20075;-58
2022/01/20 01:51:10;;;;;;;28.48;15.82;;;;;;;;;;5038480;28;20030;-58
2022/01/20 01:53:40;;;;;;;27.48;14.88;;;;;;;;;;5023829;28;20412;-58
2022/01/20 01:56:06;;;;;;;31.00;15.52;;;;;;;;;;5024385;28;20029;-58
2022/01/20 01:58:34;;;;;;;28.88;16.17;;;;;;;;;;5028209;28;20052;-58
2022/01/20 02:01:00;;;;;;;29.33;15.73;;;;;;;;;;5037163;28;20108;-58
2022/01/20 02:03:28;;;;;;;27.15;15.15;;;;;;;;;;5047315;28;20056;-58
2022/01/20 02:08:36;;;;;;;26.80;14.30;;;;;;;;;;5047935;28;20447;-58
2022/01/20 02:19:20;;;;;;;26.60;13.77;;;;;;;;;;5035467;28;20036;-58
2022/01/20 02:21:53;;;;;;;25.25;13.85;;;;;;;;;;5042698;28;20487;-58
2022/01/20 02:24:20;;;;;;;26.03;14.53;;;;;;;;;;5048206;28;20503;-58
2022/01/20 02:26:46;;;;;;;22.27;12.48;;;;;;;;;;5046065;28;20033;-58
2022/01/20 02:29:13;;;;;;;24.98;13.65;;;;;;;;;;5047747;28;20104;-58
2022/01/20 02:31:39;;;;;;;23.02;13.52;;;;;;;;;;5046175;28;20519;-58
2022/01/20 02:34:10;;;;;;;22.42;12.50;;;;;;;;;;5046337;28;20159;-59
2022/01/20 02:36:40;;;;;;;24.08;12.85;;;;;;;;;;5047108;28;20021;-58
2022/01/20 02:39:48;;;;;;;23.63;13.23;;;;;;;;;;5045826;28;20040;-58
2022/01/20 02:47:18;;;;;;;27.00;14.77;;;;;;;;;;5047556;28;20115;-58
2022/01/20 02:49:45;;;;;;;27.90;14.90;;;;;;;;;;5047093;28;20013;-58
2022/01/20 02:52:11;;;;;;;24.90;14.57;;;;;;;;;;5046263;28;20416;-58
2022/01/20 02:54:37;;;;;;;26.25;14.15;;;;;;;;;;5046795;28;20470;-59
2022/01/20 02:57:05;;;;;;;30.63;15.48;;;;;;;;;;5047082;28;20468;-58
2022/01/20 02:59:34;;;;;;;25.35;13.70;;;;;;;;;;5041637;28;20102;-58
2022/01/20 03:02:00;;;;;;;23.15;13.50;;;;;;;;;;5033846;28;20102;-58
2022/01/20 03:04:27;;;;;;;25.13;13.80;;;;;;;;;;5028186;28;20558;-58
2022/01/20 03:06:53;;;;;;;24.13;13.30;;;;;;;;;;5028030;28;20033;-58
2022/01/20 03:09:19;;;;;;;27.40;13.98;;;;;;;;;;5033309;28;20060;-58
2022/01/20 03:11:46;;;;;;;24.70;13.80;;;;;;;;;;5048618;28;20503;-58
2022/01/20 03:14:14;;;;;;;25.65;13.60;;;;;;;;;;5048703;28;20127;-58
2022/01/20 03:16:40;;;;;;;24.83;13.30;;;;;;;;;;5048527;28;20044;-58
2022/01/20 03:19:06;;;;;;;21.92;11.82;;;;;;;;;;5031588;28;20030;-58
2022/01/20 03:21:32;;;;;;;20.48;11.10;;;;;;;;;;5028803;28;20083;-58
2022/01/20 03:23:58;;;;;;;18.98;10.32;;;;;;;;;;5028635;28;20029;-58
2022/01/20 03:26:24;;;;;;;18.20;10.57;;;;;;;;;;5028634;28;20493;-58
2022/01/20 03:28:50;;;;;;;17.02;10.07;;;;;;;;;;5040077;28;20112;-58
2022/01/20 03:31:17;;;;;;;17.45;9.77;;;;;;;;;;5048487;28;20056;-58
2022/01/20 03:33:43;;;;;;;16.30;9.07;;;;;;;;;;5048210;28;20661;-58
2022/01/20 03:36:10;;;;;;;15.90;8.75;;;;;;;;;;5046832;28;20390;-58
2022/01/20 03:38:36;;;;;;;14.75;8.43;;;;;;;;;;5043136;28;20029;-58
2022/01/20 03:41:02;;;;;;;15.95;9.32;;;;;;;;;;5048296;28;20017;-58
2022/01/20 03:43:28;;;;;;;15.77;8.88;;;;;;;;;;5048066;28;20041;-58
2022/01/20 03:45:57;;;;;;;14.82;9.13;;;;;;;;;;5047770;28;20029;-58
2022/01/20 03:48:26;;;;;;;15.18;8.43;;;;;;;;;;5043177;28;20029;-58
2022/01/20 03:50:59;;;;;;;13.82;7.90;;;;;;;;;;5048531;28;20013;-58
2022/01/20 03:53:26;;;;;;;16.07;9.23;;;;;;;;;;5047168;28;20102;-58
2022/01/20 03:55:52;;;;;;;12.90;8.30;;;;;;;;;;5047634;28;20655;-58
2022/01/20 03:58:18;;;;;;;14.70;8.27;;;;;;;;;;5047626;28;20036;-58
2022/01/20 04:00:45;;;;;;;14.57;8.50;;;;;;;;;;5047642;28;20083;-58
2022/01/20 04:03:11;;;;;;;12.70;7.57;;;;;;;;;;5047994;28;20029;-58
2022/01/20 04:05:46;;;;;;;14.63;8.55;;;;;;;;;;5047526;28;20029;-58
2022/01/20 04:08:12;;;;;;;13.15;7.82;;;;;;;;;;5046915;28;20121;-58
2022/01/20 04:10:38;;;;;;;16.38;8.77;;;;;;;;;;5027155;28;20819;-58
2022/01/20 04:13:04;;;;;;;15.68;8.80;;;;;;;;;;5027789;28;20469;-58
2022/01/20 04:15:38;;;;;;;13.50;7.68;;;;;;;;;;5027834;28;20025;-58
2022/01/20 04:18:05;;;;;;;12.25;7.43;;;;;;;;;;5039390;28;20108;-58
2022/01/20 04:20:31;;;;;;;13.32;7.75;;;;;;;;;;5046477;28;20403;-58
2022/01/20 04:22:57;;;;;;;12.60;7.32;;;;;;;;;;5047263;28;20025;-58
2022/01/20 04:25:23;;;;;;;12.98;7.65;;;;;;;;;;5047295;28;20116;-58
2022/01/20 04:27:49;;;;;;;12.77;7.18;;;;;;;;;;5047860;28;20757;-58
2022/01/20 04:30:15;;;;;;;12.52;7.07;;;;;;;;;;5040548;28;20437;-58
2022/01/20 04:32:41;;;;;;;11.38;6.82;;;;;;;;;;5027092;28;20527;-58
2022/01/20 04:35:08;;;;;;;11.38;7.05;;;;;;;;;;5026475;28;20037;-58
2022/01/20 04:37:35;;;;;;;12.73;8.02;;;;;;;;;;5025551;28;20022;-58
2022/01/20 04:40:03;;;;;;;12.68;7.43;;;;;;;;;;5034598;28;20025;-58
2022/01/20 04:42:34;;;;;;;12.10;7.03;;;;;;;;;;5045382;28;20675;-58
2022/01/20 04:45:05;;;;;;;13.07;7.40;;;;;;;;;;5045633;28;20082;-58
2022/01/20 04:47:42;;;;;;;11.70;6.90;;;;;;;;;;5045535;28;20016;-58
2022/01/20 04:58:22;;;;;;;14.55;8.00;;;;;;;;;;5045598;28;20500;-58
2022/01/20 05:00:48;;;;;;;16.42;9.70;;;;;;;;;;5044588;28;20053;-58
2022/01/20 05:03:15;;;;;;;16.92;9.40;;;;;;;;;;5045279;28;20075;-58
2022/01/20 05:05:41;;;;;;;21.50;11.75;;;;;;;;;;5044894;28;20033;-58
2022/01/20 05:08:07;;;;;;;21.25;10.80;;;;;;;;;;5045066;28;20040;-58
2022/01/20 05:10:34;;;;;;;20.40;11.13;;;;;;;;;;5028772;28;20041;-58
2022/01/20 05:13:06;;;;;;;17.60;10.10;;;;;;;;;;5029625;28;20033;-58
2022/01/20 05:15:33;;;;;;;17.50;9.45;;;;;;;;;;5025335;28;20045;-58
2022/01/20 05:18:01;;;;;;;17.58;10.15;;;;;;;;;;5025291;28;20156;-58
2022/01/20 05:20:27;;;;;;;16.45;9.35;;;;;;;;;;5038996;28;20036;-58
2022/01/20 05:22:53;;;;;;;16.92;9.18;;;;;;;;;;5043561;28;20037;-58
2022/01/20 05:25:19;;;;;;;17.48;9.07;;;;;;;;;;5045471;28;20033;-58
2022/01/20 05:27:45;;;;;;;15.43;8.63;;;;;;;;;;5044583;28;20485;-58
2022/01/20 05:30:12;;;;;;;16.88;8.88;;;;;;;;;;5043773;28;20025;-58
2022/01/20 05:32:38;;;;;;;13.30;7.07;;;;;;;;;;5038954;28;20026;-58
2022/01/20 05:35:04;;;;;;;15.43;8.05;;;;;;;;;;5023737;28;20025;-58
2022/01/20 05:37:30;;;;;;;15.25;8.38;;;;;;;;;;5024808;28;20025;-58
2022/01/20 05:39:57;;;;;;;15.48;8.48;;;;;;;;;;5024537;28;20164;-58
2022/01/20 05:42:23;;;;;;;15.55;8.63;;;;;;;;;;5042133;28;20028;-58
2022/01/20 05:44:51;;;;;;;14.15;8.60;;;;;;;;;;5045128;28;20035;-58
2022/01/20 05:47:25;;;;;;;14.48;8.20;;;;;;;;;;5044199;28;20325;-58
2022/01/20 05:49:51;;;;;;;14.20;8.52;;;;;;;;;;5035744;28;20099;-58
2022/01/20 05:52:19;;;;;;;16.50;9.20;;;;;;;;;;5039954;28;20021;-58
2022/01/20 05:54:45;;;;;;;28.38;12.60;;;;;;;;;;5043582;28;20029;-58
2022/01/20 05:57:11;;;;;;;26.90;12.77;;;;;;;;;;5044855;28;20183;-58
2022/01/20 05:59:37;;;;;;;37.42;16.27;;;;;;;;;;5043897;28;20032;-58
2022/01/20 06:02:11;;;;;;;34.55;15.43;;;;;;;;;;5044001;28;20450;-58
2022/01/20 06:04:38;;;;;;;;;;;;;;;;;;5044761;28;20033;-58
2022/01/20 06:07:04;;;;;;;27.48;12.40;;;;;;;;;;5044514;28;19913;-58
2022/01/20 06:09:31;;;;;;;21.17;10.63;;;;;;;;;;5044519;28;20033;-58
2022/01/20 06:11:58;;;;;;;17.15;9.55;;;;;;;;;;5043391;28;20507;-58
2022/01/20 06:14:28;;;;;;;15.50;8.13;;;;;;;;;;5030824;28;20113;-58
2022/01/20 06:16:54;;;;;;;16.58;8.32;;;;;;;;;;5025777;28;20049;-58
2022/01/20 06:19:20;;;;;;;13.95;7.28;;;;;;;;;;5025828;28;20033;-58
2022/01/20 06:21:48;;;;;;;12.95;7.10;;;;;;;;;;5034657;28;20659;-58
2022/01/20 06:24:14;;;;;;;12.40;7.53;;;;;;;;;;5054521;28;20044;-58
2022/01/20 06:26:40;;;;;;;17.48;11.18;;;;;;;;;;5065375;28;20036;-58
2022/01/20 06:29:06;;;;;;;13.18;8.35;;;;;;;;;;5048963;28;20094;-58
2022/01/20 06:31:33;;;;;;;11.18;7.40;;;;;;;;;;5045501;28;20033;-58
2022/01/20 06:33:59;;;;;;;14.82;8.60;;;;;;;;;;5045539;28;20029;-58
2022/01/20 06:36:25;;;;;;;13.25;7.70;;;;;;;;;;5045323;28;20428;-58
2022/01/20 06:38:51;;;;;;;13.70;7.78;;;;;;;;;;5044463;28;20033;-58
2022/01/20 06:41:17;;;;;;;12.30;7.63;;;;;;;;;;5046263;28;20484;-58
2022/01/20 06:43:44;;;;;;;14.52;7.43;;;;;;;;;;5048868;28;20025;-58
2022/01/20 06:46:10;;;;;;;15.52;8.10;;;;;;;;;;5049416;28;20826;-58
2022/01/20 06:48:36;;;;;;;14.02;7.38;;;;;;;;;;5047227;28;20780;-57
2022/01/20 06:51:02;;;;;;;14.23;7.22;;;;;;;;;;5049079;28;20085;-58
2022/01/20 06:53:28;;;;;;;13.68;7.18;;;;;;;;;;5048906;28;20029;-58
2022/01/20 06:55:54;;;;;;;12.55;6.53;;;;;;;;;;5049208;28;20057;-58
2022/01/20 06:58:22;;;;;;;10.50;6.43;;;;;;;;;;5048895;28;20124;-58
2022/01/20 07:00:49;;;;;;;9.18;5.43;;;;;;;;;;5032430;28;20025;-58
2022/01/20 07:03:16;;;;;;;8.48;5.50;;;;;;;;;;5033466;28;20467;-58
2022/01/20 07:05:42;;;;;;;8.40;4.97;;;;;;;;;;5047533;28;20025;-58
2022/01/20 07:08:08;;;;;;;8.63;4.93;;;;;;;;;;5047132;28;20040;-58
2022/01/20 07:10:34;;;;;;;6.50;4.25;;;;;;;;;;5046197;28;20345;-58
2022/01/20 07:13:00;;;;;;;7.75;4.57;;;;;;;;;;5047075;28;20060;-58
2022/01/20 07:15:27;;;;;;;7.97;4.90;;;;;;;;;;5047120;28;20565;-58
2022/01/20 07:17:53;;;;;;;7.00;4.43;;;;;;;;;;5046862;28;20025;-58
2022/01/20 07:20:19;;;;;;;6.05;4.15;;;;;;;;;;5046697;28;20029;-58
2022/01/20 07:22:45;;;;;;;8.45;5.10;;;;;;;;;;5043881;28;20041;-58
2022/01/20 07:25:12;;;;;;;8.45;4.80;;;;;;;;;;5046106;28;20511;-58
2022/01/20 07:27:39;;;;;;;8.50;5.10;;;;;;;;;;5051418;28;20569;-58
2022/01/20 07:30:05;;;;;;;15.07;7.22;;;;;;;;;;5046894;28;20029;-58
2022/01/20 07:32:31;;;;;;;16.70;8.02;;;;;;;;;;5033448;28;20407;-58
2022/01/20 07:34:57;;;;;;;15.18;7.30;;;;;;;;;;5047135;28;20021;-58
2022/01/20 07:37:23;;;;;;;21.35;9.20;;;;;;;;;;5048049;28;20057;-58
2022/01/20 07:39:49;;;;;;;21.05;8.73;;;;;;;;;;5035876;28;20122;-58
2022/01/20 07:42:16;;;;;;;16.48;7.22;;;;;;;;;;5030788;28;20869;-58
2022/01/20 07:44:42;;;;;;;18.35;8.55;;;;;;;;;;5041020;28;20028;-58
2022/01/20 07:47:09;;;;;;;19.05;8.50;;;;;;;;;;5041116;28;20056;-58
2022/01/20 07:49:35;;;;;;;21.85;9.00;;;;;;;;;;5027826;28;20061;-58
2022/01/20 07:52:03;;;;;;;26.45;10.75;;;;;;;;;;5044954;28;20025;-58
2022/01/20 07:54:29;;;;;;;25.90;11.02;;;;;;;;;;5044770;28;20029;-58
2022/01/20 07:56:56;;;;;;;23.20;9.55;;;;;;;;;;5047399;28;20086;-58
2022/01/20 07:59:24;;;;;;;23.33;10.02;;;;;;;;;;5046864;28;20044;-57
2022/01/20 08:01:51;;;;;;;32.72;14.52;;;;;;;;;;5045820;28;20509;-58
2022/01/20 08:04:17;;;;;;;26.40;12.48;;;;;;;;;;5047375;28;20013;-58
2022/01/20 08:06:43;;;;;;;28.42;12.43;;;;;;;;;;5045487;28;20133;-58
2022/01/20 08:09:09;;;;;;;23.13;10.90;;;;;;;;;;5047387;28;20029;-58
2022/01/20 08:11:36;;;;;;;26.40;12.07;;;;;;;;;;5047449;28;20040;-58
2022/01/20 08:14:03;;;;;;;22.88;10.32;;;;;;;;;;5047577;28;20074;-58
2022/01/20 08:16:29;;;;;;;19.75;9.43;;;;;;;;;;5048343;28;20029;-58
2022/01/20 08:18:55;;;;;;;18.65;8.80;;;;;;;;;;5047085;28;20146;-58
2022/01/20 08:21:21;;;;;;;20.17;9.32;;;;;;;;;;5046742;28;20033;-58
2022/01/20 08:23:47;;;;;;;20.77;10.80;;;;;;;;;;5046715;28;20508;-58
2022/01/20 08:26:14;;;;;;;25.85;10.48;;;;;;;;;;5045725;28;20056;-58
2022/01/20 08:28:40;;;;;;;26.67;11.38;;;;;;;;;;5044651;28;20044;-58
2022/01/20 08:31:06;;;;;;;26.88;11.20;;;;;;;;;;5046932;28;20029;-58
2022/01/20 08:33:32;;;;;;;20.23;9.50;;;;;;;;;;5045974;28;20083;-58
2022/01/20 08:35:58;;;;;;;20.45;9.40;;;;;;;;;;5046221;28;20487;-58
2022/01/20 08:38:25;;;;;;;20.77;9.43;;;;;;;;;;5046902;28;20017;-58
2022/01/20 08:40:52;;;;;;;18.33;8.90;;;;;;;;;;5046555;28;20071;-59
2022/01/20 08:43:18;;;;;;;18.42;8.88;;;;;;;;;;5045451;28;20079;-58
2022/01/20 08:45:46;;;;;;;15.95;7.38;;;;;;;;;;5045703;28;20037;-58
2022/01/20 08:48:13;;;;;;;15.95;8.05;;;;;;;;;;5033106;28;20026;-58
2022/01/20 08:50:40;;;;;;;18.67;10.00;;;;;;;;;;5046610;28;20039;-58
2022/01/20 08:53:07;;;;;;;18.73;10.00;;;;;;;;;;5045027;28;20556;-58
2022/01/20 08:55:34;;;;;;;15.70;8.50;;;;;;;;;;5036549;28;20755;-59
2022/01/20 08:58:00;;;;;;;13.60;8.30;;;;;;;;;;5034612;28;20028;-58
2022/01/20 09:00:28;;;;;;;12.85;6.82;;;;;;;;;;5025895;28;20083;-58
2022/01/20 09:02:54;;;;;;;11.02;6.40;;;;;;;;;;5024870;28;20037;-58
2022/01/20 09:05:22;;;;;;;10.77;6.25;;;;;;;;;;5031470;28;20120;-58
2022/01/20 09:07:49;;;;;;;9.02;5.40;;;;;;;;;;5032486;28;20511;-58
2022/01/20 09:10:19;;;;;;;10.32;5.78;;;;;;;;;;5033797;28;20061;-58
2022/01/20 09:15:29;;;;;;;8.82;5.78;;;;;;;;;;5026752;28;20048;-58
2022/01/20 09:17:57;;;;;;;10.52;6.40;;;;;;;;;;5032934;28;20443;-58
2022/01/20 09:20:23;;;;;;;7.88;4.80;;;;;;;;;;5029114;28;20029;-58
2022/01/20 09:22:51;;;;;;;8.57;5.30;;;;;;;;;;5025508;28;20040;-58
2022/01/20 09:25:17;;;;;;;9.60;5.82;;;;;;;;;;5037199;28;20029;-58
2022/01/20 09:27:43;;;;;;;8.25;4.90;;;;;;;;;;5034712;28;20200;-58
2022/01/20 09:30:10;;;;;;;9.73;5.57;;;;;;;;;;5032617;28;20057;-58
2022/01/20 09:32:39;;;;;;;8.13;5.40;;;;;;;;;;5031974;28;20033;-58
2022/01/20 09:35:06;;;;;;;7.85;5.07;;;;;;;;;;5034178;28;20491;-58
2022/01/20 09:37:34;;;;;;;10.15;6.03;;;;;;;;;;5032919;28;20041;-58
2022/01/20 09:40:00;;;;;;;9.05;5.75;;;;;;;;;;5031479;28;20032;-58
2022/01/20 09:42:26;;;;;;;8.60;5.85;;;;;;;;;;5026003;28;20037;-58
2022/01/20 09:44:54;;;;;;;9.93;5.20;;;;;;;;;;5026800;28;20377;-58
2022/01/20 09:47:20;;;;;;;9.40;5.65;;;;;;;;;;5032307;28;20060;-58
2022/01/20 09:49:47;;;;;;;9.85;5.57;;;;;;;;;;5026908;28;20036;-58
2022/01/20 09:52:13;;;;;;;7.50;4.82;;;;;;;;;;5026050;28;20037;-58
2022/01/20 09:54:39;;;;;;;13.70;6.80;;;;;;;;;;5026140;28;20090;-57
2022/01/20 09:57:05;;;;;;;12.10;6.75;;;;;;;;;;5028274;28;20029;-57
2022/01/20 09:59:31;;;;;;;11.30;6.53;;;;;;;;;;5027244;28;20029;-57
2022/01/20 10:01:58;;;;;;;10.65;5.90;;;;;;;;;;5034831;28;20044;-56
2022/01/20 10:04:29;;;;;;;11.00;5.85;;;;;;;;;;5029862;28;20037;-56
2022/01/20 10:06:56;;;;;;;9.73;5.65;;;;;;;;;;5034678;28;20033;-57
2022/01/20 10:09:28;;;;;;;9.30;5.38;;;;;;;;;;5031101;28;20397;-55
2022/01/20 10:11:54;;;;;;;8.07;4.65;;;;;;;;;;5028039;28;20512;-56
2022/01/20 10:14:21;;;;;;;8.73;4.82;;;;;;;;;;5028110;28;20127;-57
2022/01/20 10:16:47;;;;;;;9.15;4.82;;;;;;;;;;5034204;28;20404;-57
2022/01/20 10:19:22;;;;;;;7.10;4.35;;;;;;;;;;5037825;28;20034;-57
2022/01/20 10:21:48;;;;;;;7.30;4.38;;;;;;;;;;5040676;28;20029;-57
2022/01/20 10:24:14;;;;;;;7.53;4.28;;;;;;;;;;5034291;28;20563;-56
2022/01/20 10:26:40;;;;;;;10.27;5.47;;;;;;;;;;5037602;28;20223;-56
2022/01/20 10:29:08;;;;;;;9.23;5.30;;;;;;;;;;5034940;28;20512;-56
2022/01/20 10:31:51;;;;;;;10.10;5.82;;;;;;;;;;5033227;28;20127;-57
2022/01/20 10:34:32;;;;;;;9.75;5.35;;;;;;;;;;5028504;28;20497;-57
2022/01/20 10:37:00;;;;;;;11.82;5.55;;;;;;;;;;5035335;28;20091;-56
2022/01/20 10:39:31;;;;;;;10.07;5.55;;;;;;;;;;5037440;28;20052;-56
2022/01/20 10:42:02;;;;;;;8.07;4.78;;;;;;;;;;5034640;28;20056;-57
2022/01/20 10:44:28;;;;;;;7.68;4.70;;;;;;;;;;5037159;28;20159;-57
2022/01/20 10:46:58;;;;;;;7.30;4.32;;;;;;;;;;5032073;28;20034;-56
2022/01/20 10:49:30;;;;;;;7.25;4.05;;;;;;;;;;5032664;28;20037;-57
2022/01/20 10:52:04;;;;;;;7.00;3.53;;;;;;;;;;5034378;28;20401;-57
2022/01/20 10:54:39;;;;;;;6.55;3.72;;;;;;;;;;5032702;28;20025;-57
2022/01/20 10:57:07;;;;;;;5.38;3.63;;;;;;;;;;5038283;28;20029;-57
2022/01/20 10:59:34;;;;;;;6.20;3.58;;;;;;;;;;5029774;28;20025;-57
2022/01/20 11:02:01;;;;;;;6.60;3.90;;;;;;;;;;5035805;28;20085;-57
2022/01/20 11:04:28;;;;;;;6.20;3.65;;;;;;;;;;5031408;28;20452;-57
2022/01/20 11:06:56;;;;;;;5.47;3.67;;;;;;;;;;5044823;28;20033;-57
2022/01/20 11:09:24;;;;;;;6.00;4.05;;;;;;;;;;5047669;28;20519;-57
2022/01/20 11:11:52;;;;;;;7.28;4.30;;;;;;;;;;5048844;28;20559;-57
2022/01/20 11:14:18;;;;;;;10.43;5.55;;;;;;;;;;5049734;28;20029;-57
2022/01/20 11:16:44;;;;;;;9.50;5.50;;;;;;;;;;5046763;28;20512;-57
2022/01/20 11:19:15;;;;;;;10.43;5.22;;;;;;;;;;5041359;28;20021;-56
2022/01/20 11:21:43;;;;;;;10.27;4.88;;;;;;;;;;5048591;28;20112;-56
2022/01/20 11:24:19;;;;;;;11.95;5.35;;;;;;;;;;5047821;28;20031;-56
2022/01/20 11:26:49;;;;;;;7.93;4.55;;;;;;;;;;5046320;28;20104;-56
2022/01/20 11:29:16;;;;;;;8.85;5.07;;;;;;;;;;5044325;28;20175;-57
2022/01/20 11:31:42;;;;;;;7.68;4.45;;;;;;;;;;5049471;28;20527;-57
2022/01/20 11:34:18;;;;;;;7.45;4.25;;;;;;;;;;5049097;28;20021;-55
2022/01/20 11:36:45;;;;;;;8.10;4.55;;;;;;;;;;5048184;28;20477;-56
2022/01/20 11:39:11;;;;;;;6.88;4.13;;;;;;;;;;5049011;28;20388;-57
2022/01/20 11:41:45;;;;;;;8.65;4.88;;;;;;;;;;5047919;28;20029;-57
2022/01/20 11:44:14;;;;;;;6.32;4.10;;;;;;;;;;5046923;28;20045;-56
2022/01/20 11:46:43;;;;;;;6.40;3.65;;;;;;;;;;5048536;28;20033;-56
2022/01/20 11:49:10;;;;;;;8.88;5.15;;;;;;;;;;5048943;28;20032;-55
2022/01/20 11:51:56;;;;;;;8.07;4.32;;;;;;;;;;5048936;28;20032;-57
2022/01/20 11:54:25;;;;;;;9.35;4.93;;;;;;;;;;5043433;28;20078;-57
2022/01/20 11:56:51;;;;;;;10.57;5.35;;;;;;;;;;5043871;28;20064;-56
2022/01/20 11:59:17;;;;;;;8.75;4.97;;;;;;;;;;5049322;28;20104;-56
2022/01/20 12:01:47;;;;;;;8.50;4.65;;;;;;;;;;5041070;28;20552;-56
2022/01/20 12:04:15;;;;;;;7.72;4.40;;;;;;;;;;5049007;28;20507;-56
2022/01/20 12:06:47;;;;;;;8.50;4.97;;;;;;;;;;5033252;28;20032;-56
2022/01/20 12:09:14;;;;;;;6.60;3.60;;;;;;;;;;5046452;28;20056;-55
2022/01/20 12:11:49;;;;;;;6.43;3.83;;;;;;;;;;5027805;28;20083;-56
2022/01/20 12:14:32;;;;;;;7.85;3.92;;;;;;;;;;5038133;28;20373;-57
2022/01/20 12:17:02;;;;;;;8.00;4.07;;;;;;;;;;5039554;28;20022;-56
2022/01/20 12:19:28;;;;;;;6.70;3.67;;;;;;;;;;5039984;28;20056;-57
2022/01/20 12:21:54;;;;;;;7.50;4.13;;;;;;;;;;5041517;28;20025;-57
2022/01/20 12:24:20;;;;;;;6.88;4.15;;;;;;;;;;5046207;28;21030;-57
2022/01/20 12:26:46;;;;;;;8.07;4.45;;;;;;;;;;5047961;28;20018;-57
2022/01/20 12:29:13;;;;;;;7.63;4.50;;;;;;;;;;5036166;28;20061;-56
2022/01/20 12:31:51;;;;;;;7.63;4.45;;;;;;;;;;5035756;28;20186;-56
2022/01/20 12:34:19;;;;;;;9.63;5.00;;;;;;;;;;5044916;28;20676;-57
2022/01/20 12:36:55;;;;;;;10.27;5.18;;;;;;;;;;5044427;28;20243;-57
2022/01/20 12:39:32;;;;;;;11.32;6.45;;;;;;;;;;5045001;28;20028;-57
2022/01/20 12:42:00;;;;;;;14.82;7.30;;;;;;;;;;5045487;28;20075;-57
2022/01/20 12:45:55;;;;;;;11.93;6.10;;;;;;;;;;5038632;28;20497;-57
2022/01/20 12:47:52;;;;;;;11.07;6.40;;;;;;;;;;5030309;28;20400;-55
2022/01/20 12:50:18;;;;;;;10.48;6.05;;;;;;;;;;5045532;28;20025;-56
2022/01/20 12:52:51;;;;;;;9.88;5.55;;;;;;;;;;5045750;28;20025;-57
2022/01/20 12:55:17;;;;;;;10.82;5.72;;;;;;;;;;5045481;28;20086;-57
2022/01/20 12:57:44;;;;;;;12.95;6.82;;;;;;;;;;5044678;28;20036;-57
2022/01/20 13:00:10;;;;;;;9.73;5.80;;;;;;;;;;5045649;28;20480;-57
2022/01/20 13:02:36;;;;;;;13.35;6.90;;;;;;;;;;5045276;28;20040;-56
2022/01/20 13:05:05;;;;;;;11.70;6.60;;;;;;;;;;5043178;28;20025;-57
2022/01/20 13:07:33;;;;;;;8.75;5.47;;;;;;;;;;5044892;28;20094;-57
2022/01/20 13:10:05;;;;;;;9.68;5.80;;;;;;;;;;5044009;28;20591;-57
2022/01/20 13:12:41;;;;;;;13.30;7.18;;;;;;;;;;5045030;28;20017;-57
2022/01/20 13:15:16;;;;;;;12.85;7.32;;;;;;;;;;5044840;28;20515;-56
2022/01/20 13:17:42;;;;;;;12.40;6.72;;;;;;;;;;5044614;28;20465;-57
2022/01/20 13:20:16;;;;;;;11.52;6.28;;;;;;;;;;5044839;28;20075;-57
2022/01/20 13:22:54;;;;;;;10.95;6.03;;;;;;;;;;5045530;28;20399;-57
2022/01/20 13:25:22;;;;;;;12.32;6.60;;;;;;;;;;5042553;28;20033;-57
2022/01/20 13:27:51;;;;;;;9.15;5.82;;;;;;;;;;5044539;28;20037;-57
2022/01/20 13:30:28;;;;;;;10.63;6.00;;;;;;;;;;5040810;28;20025;-57
2022/01/20 13:32:55;;;;;;;12.00;5.78;;;;;;;;;;5042931;28;20040;-56
2022/01/20 13:35:21;;;;;;;12.13;6.90;;;;;;;;;;5032988;28;20109;-56
2022/01/20 13:37:57;;;;;;;9.45;5.57;;;;;;;;;;5046074;28;20025;-57
2022/01/20 13:40:23;;;;;;;10.60;5.97;;;;;;;;;;5045878;28;20047;-57
2022/01/20 13:45:43;;;;;;;12.05;6.35;;;;;;;;;;5046049;28;20043;-57
2022/01/20 13:48:09;;;;;;;9.70;6.00;;;;;;;;;;5046307;28;20269;-56
2022/01/20 13:50:37;;;;;;;12.00;7.07;;;;;;;;;;5036136;28;20099;-57
2022/01/20 13:53:11;;;;;;;13.90;7.68;;;;;;;;;;5037433;28;20698;-57
2022/01/20 13:55:39;;;;;;;13.45;7.75;;;;;;;;;;5026543;28;20813;-57
2022/01/20 13:58:05;;;;;;;10.98;6.95;;;;;;;;;;5040553;28;20030;-58
2022/01/20 14:00:33;;;;;;;11.63;7.63;;;;;;;;;;5044426;28;20484;-57
2022/01/20 14:02:59;;;;;;;11.43;7.20;;;;;;;;;;5046016;28;20032;-56
2022/01/20 14:05:29;;;;;;;13.63;7.82;;;;;;;;;;5033903;28;20112;-56
2022/01/20 14:07:56;;;;;;;14.20;8.05;;;;;;;;;;5025114;28;20034;-56
2022/01/20 14:10:22;;;;;;;13.15;7.10;;;;;;;;;;5025891;28;20022;-57
2022/01/20 14:12:48;;;;;;;11.23;6.80;;;;;;;;;;5025175;28;20099;-57
2022/01/20 14:15:14;;;;;;;15.32;8.05;;;;;;;;;;5026261;28;20390;-57
2022/01/20 14:17:49;;;;;;;12.52;7.57;;;;;;;;;;5025416;28;20067;-56
2022/01/20 14:20:15;;;;;;;13.20;7.30;;;;;;;;;;5046613;28;20014;-57
2022/01/20 14:22:41;;;;;;;13.50;7.38;;;;;;;;;;5045633;28;20439;-57
2022/01/20 14:25:10;;;;;;;11.13;6.10;;;;;;;;;;5044641;28;20068;-57
2022/01/20 14:27:36;;;;;;;12.02;7.07;;;;;;;;;;5029282;28;20511;-57
2022/01/20 14:30:03;;;;;;;12.95;7.20;;;;;;;;;;5024116;28;20063;-58
2022/01/20 14:32:29;;;;;;;11.05;6.75;;;;;;;;;;5026014;28;20443;-58
2022/01/20 14:34:55;;;;;;;10.48;6.20;;;;;;;;;;5041251;28;20068;-57
2022/01/20 14:37:22;;;;;;;10.65;6.07;;;;;;;;;;5025630;28;20018;-59
2022/01/20 14:39:48;;;;;;;9.40;6.03;;;;;;;;;;5024868;28;20030;-58
2022/01/20 14:42:15;;;;;;;8.88;5.90;;;;;;;;;;5036940;28;20033;-58
2022/01/20 14:44:45;;;;;;;9.43;5.70;;;;;;;;;;5044057;28;20412;-58
2022/01/20 14:47:11;;;;;;;7.28;4.75;;;;;;;;;;5045041;28;20693;-58
2022/01/20 14:49:37;;;;;;;10.65;6.15;;;;;;;;;;5030200;28;20037;-58
2022/01/20 14:52:05;;;;;;;10.35;5.55;;;;;;;;;;5025215;28;20105;-58
2022/01/20 14:54:32;;;;;;;9.50;5.50;;;;;;;;;;5027140;28;20112;-58
2022/01/20 14:56:58;;;;;;;9.82;5.50;;;;;;;;;;5041577;28;20021;-57
2022/01/20 14:59:25;;;;;;;8.32;4.75;;;;;;;;;;5045503;28;20119;-57
2022/01/20 15:01:51;;;;;;;7.32;4.80;;;;;;;;;;5045245;28;20037;-57
2022/01/20 15:04:18;;;;;;;6.88;4.15;;;;;;;;;;5049035;28;20074;-57
2022/01/20 15:06:44;;;;;;;7.38;3.95;;;;;;;;;;5048454;28;20471;-57
2022/01/20 15:09:10;;;;;;;6.38;3.90;;;;;;;;;;5048980;28;20052;-57
2022/01/20 15:11:36;;;;;;;7.45;3.80;;;;;;;;;;5045188;28;20428;-58
2022/01/20 15:14:04;;;;;;;11.75;5.72;;;;;;;;;;5041699;28;20407;-58
2022/01/20 15:16:30;;;;;;;24.98;10.65;;;;;;;;;;5046433;28;20068;-57
2022/01/20 15:18:57;;;;;;;22.15;10.20;;;;;;;;;;5047642;28;20033;-58
2022/01/20 15:21:24;;;;;;;17.13;8.68;;;;;;;;;;5048238;28;20017;-57
2022/01/20 15:23:52;;;;;;;15.18;6.78;;;;;;;;;;5046669;28;20063;-58
2022/01/20 15:26:18;;;;;;;10.95;5.68;;;;;;;;;;5047382;28;20033;-58
2022/01/20 15:28:47;;;;;;;9.13;5.07;;;;;;;;;;5047287;28;20053;-58
2022/01/20 15:31:15;;;;;;;9.82;5.55;;;;;;;;;;5047474;28;20025;-58
2022/01/20 15:33:43;;;;;;;9.82;6.10;;;;;;;;;;5046079;28;20065;-58
2022/01/20 15:36:09;;;;;;;12.50;6.65;;;;;;;;;;5045409;28;20174;-59
2022/01/20 15:38:35;;;;;;;10.00;5.78;;;;;;;;;;5046594;28;20025;-58
2022/01/20 15:41:01;;;;;;;8.57;6.07;;;;;;;;;;5047298;28;20454;-58